Time;durP1;ratioP1;P1;durP2;ratioP2;P2;SDS_P1;SDS_P2;PMS_P1;PMS_P2;Temp;Humidity;BMP_temperature;BMP_pressure;BME280_temperature;BME280_humidity;BME280_pressure;Samples;Min_cycle;Max_cycle;Signal;HPM_P1;HPM_P2
2021/01/09 00:00:43;;;;;;;28.80;12.97;;;;;;;;;;4993463;28;20233;-74
2021/01/09 00:03:54;;;;;;;26.47;12.73;;;;;;;;;;4993856;28;20296;-75
2021/01/09 00:07:06;;;;;;;28.27;13.23;;;;;;;;;;4994708;28;20250;-74
2021/01/09 00:10:17;;;;;;;25.37;12.57;;;;;;;;;;4995189;28;20283;-75
2021/01/09 00:13:29;;;;;;;25.43;11.87;;;;;;;;;;4994231;28;20240;-75
2021/01/09 00:16:45;;;;;;;28.80;13.63;;;;;;;;;;5000700;28;20209;-74
2021/01/09 00:20:05;;;;;;;24.20;12.07;;;;;;;;;;5005260;28;20189;-75
2021/01/09 00:23:17;;;;;;;26.17;12.67;;;;;;;;;;5000385;28;20217;-75
2021/01/09 00:26:29;;;;;;;28.17;12.77;;;;;;;;;;4994089;28;20201;-75
2021/01/09 00:29:41;;;;;;;24.50;11.90;;;;;;;;;;4993780;28;20213;-76
2021/01/09 00:32:52;;;;;;;27.77;12.40;;;;;;;;;;4994070;28;20236;-76
2021/01/09 00:36:05;;;;;;;28.80;13.13;;;;;;;;;;4993618;28;20252;-75
2021/01/09 00:39:17;;;;;;;30.70;14.23;;;;;;;;;;4993676;28;20255;-75
2021/01/09 00:42:28;;;;;;;30.70;13.87;;;;;;;;;;4993756;28;20236;-75
2021/01/09 00:45:39;;;;;;;29.90;13.50;;;;;;;;;;4993116;28;20240;-75
2021/01/09 00:48:50;;;;;;;30.23;13.80;;;;;;;;;;4993468;28;20232;-75
2021/01/09 00:52:01;;;;;;;30.47;14.20;;;;;;;;;;4993467;28;20610;-74
2021/01/09 00:55:15;;;;;;;31.30;13.60;;;;;;;;;;4993125;28;20579;-74
2021/01/09 00:58:26;;;;;;;30.70;14.37;;;;;;;;;;4993108;28;20592;-75
2021/01/09 01:01:37;;;;;;;29.97;14.57;;;;;;;;;;4993433;28;20628;-75
2021/01/09 01:04:49;;;;;;;33.07;13.90;;;;;;;;;;4992531;28;20797;-75
2021/01/09 01:08:00;;;;;;;34.10;14.47;;;;;;;;;;4992137;28;20216;-75
2021/01/09 01:11:12;;;;;;;30.33;14.57;;;;;;;;;;4994202;28;20232;-75
2021/01/09 01:14:23;;;;;;;31.93;14.60;;;;;;;;;;4992966;28;20288;-75
2021/01/09 01:17:34;;;;;;;31.13;14.80;;;;;;;;;;4994511;28;20213;-74
2021/01/09 01:20:46;;;;;;;31.10;14.10;;;;;;;;;;4995405;28;20244;-75
2021/01/09 01:23:58;;;;;;;32.03;15.07;;;;;;;;;;5010800;28;20205;-76
2021/01/09 01:27:10;;;;;;;35.47;16.10;;;;;;;;;;5008220;28;20253;-76
2021/01/09 01:30:22;;;;;;;33.73;14.80;;;;;;;;;;4993681;28;20208;-75
2021/01/09 01:33:33;;;;;;;30.57;15.50;;;;;;;;;;4993373;28;20216;-75
2021/01/09 01:36:48;;;;;;;38.90;15.37;;;;;;;;;;4993272;28;20573;-75
2021/01/09 01:39:59;;;;;;;32.70;15.63;;;;;;;;;;4992772;28;20209;-75
2021/01/09 01:43:14;;;;;;;36.97;15.80;;;;;;;;;;4994146;28;20573;-76
2021/01/09 01:46:26;;;;;;;34.57;15.73;;;;;;;;;;4992929;28;20201;-75
2021/01/09 01:49:37;;;;;;;32.40;15.70;;;;;;;;;;4992686;28;20268;-75
2021/01/09 01:52:48;;;;;;;35.97;16.27;;;;;;;;;;4992183;28;20233;-76
2021/01/09 01:56:00;;;;;;;40.33;16.37;;;;;;;;;;4992539;28;20254;-75
2021/01/09 01:59:14;;;;;;;36.60;15.97;;;;;;;;;;4992741;28;20276;-75
2021/01/09 02:02:35;;;;;;;38.07;16.90;;;;;;;;;;4994110;28;20719;-74
2021/01/09 02:05:59;;;;;;;33.40;15.27;;;;;;;;;;4992554;28;20221;-75
2021/01/09 02:09:13;;;;;;;34.87;16.17;;;;;;;;;;5000344;28;20197;-74
2021/01/09 02:12:28;;;;;;;35.40;16.13;;;;;;;;;;5003936;28;20240;-75
2021/01/09 02:15:40;;;;;;;34.93;15.03;;;;;;;;;;4997938;28;20268;-75
2021/01/09 02:18:51;;;;;;;41.50;16.23;;;;;;;;;;4991984;28;20627;-76
2021/01/09 02:22:04;;;;;;;35.37;16.87;;;;;;;;;;4992014;28;20225;-75
2021/01/09 02:25:16;;;;;;;38.70;17.10;;;;;;;;;;4991994;28;20240;-75
2021/01/09 02:28:28;;;;;;;36.90;16.60;;;;;;;;;;4992201;28;20209;-75
2021/01/09 02:31:42;;;;;;;35.27;16.33;;;;;;;;;;4991405;28;20245;-76
2021/01/09 02:34:54;;;;;;;38.83;17.07;;;;;;;;;;4993191;28;20208;-75
2021/01/09 02:38:05;;;;;;;38.77;17.03;;;;;;;;;;4995457;28;20190;-76
2021/01/09 02:41:17;;;;;;;37.83;16.97;;;;;;;;;;4995421;28;20275;-75
2021/01/09 02:44:28;;;;;;;37.90;16.87;;;;;;;;;;4994725;28;20233;-75
2021/01/09 02:47:39;;;;;;;40.07;17.67;;;;;;;;;;4996603;28;20700;-75
2021/01/09 02:50:50;;;;;;;33.20;16.13;;;;;;;;;;4995217;28;20241;-75
2021/01/09 02:54:02;;;;;;;39.43;16.80;;;;;;;;;;4996678;28;20320;-75
2021/01/09 02:57:14;;;;;;;40.40;17.10;;;;;;;;;;4994437;28;20587;-75
2021/01/09 03:00:25;;;;;;;37.83;17.07;;;;;;;;;;4995297;28;20204;-76
2021/01/09 03:03:36;;;;;;;37.63;16.60;;;;;;;;;;4995621;28;20193;-76
2021/01/09 03:06:47;;;;;;;39.60;17.57;;;;;;;;;;4994024;28;20241;-75
2021/01/09 03:09:58;;;;;;;40.30;17.17;;;;;;;;;;4994543;28;20665;-76
2021/01/09 03:13:10;;;;;;;40.60;17.50;;;;;;;;;;4994577;28;20216;-76
2021/01/09 03:16:21;;;;;;;37.70;17.27;;;;;;;;;;4994368;28;20277;-76
2021/01/09 03:19:32;;;;;;;37.03;16.30;;;;;;;;;;4994766;28;20264;-75
2021/01/09 03:22:45;;;;;;;39.27;17.27;;;;;;;;;;4994177;28;20656;-75
2021/01/09 03:25:56;;;;;;;38.37;17.27;;;;;;;;;;4993825;28;20232;-75
2021/01/09 03:29:08;;;;;;;39.73;17.77;;;;;;;;;;4994129;28;20212;-75
2021/01/09 03:32:19;;;;;;;40.37;17.73;;;;;;;;;;4993708;28;20283;-75
2021/01/09 03:35:30;;;;;;;39.67;18.00;;;;;;;;;;4993971;28;20632;-75
2021/01/09 03:38:41;;;;;;;42.67;19.03;;;;;;;;;;4993732;28;20702;-74
2021/01/09 03:41:53;;;;;;;41.23;17.67;;;;;;;;;;4994329;28;20288;-75
2021/01/09 03:45:06;;;;;;;39.27;17.10;;;;;;;;;;4993298;28;20241;-75
2021/01/09 03:48:17;;;;;;;40.73;17.30;;;;;;;;;;4992958;28;20249;-75
2021/01/09 03:51:32;;;;;;;42.63;18.63;;;;;;;;;;4993671;28;20256;-75
2021/01/09 03:54:44;;;;;;;35.80;17.20;;;;;;;;;;4993183;28;20204;-75
2021/01/09 03:57:55;;;;;;;39.90;17.23;;;;;;;;;;4993229;28;20209;-75
2021/01/09 04:01:07;;;;;;;37.10;16.87;;;;;;;;;;4993345;28;20280;-75
2021/01/09 04:04:18;;;;;;;36.90;17.40;;;;;;;;;;4992962;28;20305;-75
2021/01/09 04:07:29;;;;;;;38.67;17.67;;;;;;;;;;4992945;28;20225;-75
2021/01/09 04:10:40;;;;;;;38.90;18.00;;;;;;;;;;4994512;28;20208;-75
2021/01/09 04:13:55;;;;;;;42.87;18.77;;;;;;;;;;4993136;28;20212;-75
2021/01/09 04:17:07;;;;;;;38.00;17.17;;;;;;;;;;4993042;28;20220;-75
2021/01/09 04:20:18;;;;;;;38.57;17.93;;;;;;;;;;4992810;28;20488;-75
2021/01/09 04:23:29;;;;;;;42.77;18.93;;;;;;;;;;4993540;28;20216;-75
2021/01/09 04:26:40;;;;;;;43.90;19.13;;;;;;;;;;4992735;28;20245;-75
2021/01/09 04:29:51;;;;;;;45.53;19.13;;;;;;;;;;4992786;28;20209;-74
2021/01/09 04:33:03;;;;;;;38.10;17.03;;;;;;;;;;4993705;28;20719;-74
2021/01/09 04:36:16;;;;;;;40.07;18.37;;;;;;;;;;4992458;28;20677;-74
2021/01/09 04:39:27;;;;;;;48.00;20.33;;;;;;;;;;4992529;28;20259;-74
2021/01/09 04:42:38;;;;;;;41.73;18.83;;;;;;;;;;4992203;28;20245;-74
2021/01/09 04:45:49;;;;;;;47.80;19.27;;;;;;;;;;4992334;28;20236;-74
2021/01/09 04:49:01;;;;;;;44.53;19.13;;;;;;;;;;4992363;28;20216;-74
2021/01/09 04:52:12;;;;;;;46.00;20.10;;;;;;;;;;4991888;28;20228;-75
2021/01/09 04:55:27;;;;;;;46.67;19.90;;;;;;;;;;4991973;28;20204;-74
2021/01/09 04:58:39;;;;;;;46.73;19.30;;;;;;;;;;4991818;28;20232;-75
2021/01/09 05:01:50;;;;;;;44.80;18.33;;;;;;;;;;4992024;28;20232;-74
2021/01/09 05:05:03;;;;;;;45.23;18.83;;;;;;;;;;4992047;28;20263;-75
2021/01/09 05:08:17;;;;;;;47.13;20.37;;;;;;;;;;4992867;28;20304;-74
2021/01/09 05:11:32;;;;;;;41.30;18.70;;;;;;;;;;5003405;28;20256;-74
2021/01/09 05:14:43;;;;;;;47.80;19.23;;;;;;;;;;5003809;28;20213;-74
2021/01/09 05:17:54;;;;;;;46.07;19.27;;;;;;;;;;5004435;28;20205;-75
2021/01/09 05:21:10;;;;;;;43.57;19.37;;;;;;;;;;4992804;28;20233;-74
2021/01/09 05:24:22;;;;;;;45.17;19.07;;;;;;;;;;4992165;28;20725;-75
2021/01/09 05:27:34;;;;;;;41.67;17.60;;;;;;;;;;4992600;28;20209;-75
2021/01/09 05:30:45;;;;;;;41.47;18.47;;;;;;;;;;4992146;28;20227;-74
2021/01/09 05:33:56;;;;;;;41.60;18.77;;;;;;;;;;4992576;28;20579;-74
2021/01/09 05:37:15;;;;;;;47.27;19.83;;;;;;;;;;4995704;28;20514;-74
2021/01/09 05:40:26;;;;;;;46.33;19.23;;;;;;;;;;5000159;28;20217;-75
2021/01/09 05:43:38;;;;;;;44.13;19.03;;;;;;;;;;5012706;28;20255;-74
2021/01/09 05:46:49;;;;;;;44.20;19.50;;;;;;;;;;5000991;28;20599;-75
2021/01/09 05:50:01;;;;;;;49.97;20.27;;;;;;;;;;4993801;28;20646;-75
2021/01/09 05:53:33;;;;;;;48.47;20.63;;;;;;;;;;4994055;28;20212;-75
2021/01/09 05:56:44;;;;;;;45.27;19.67;;;;;;;;;;4993155;28;20325;-74
2021/01/09 05:59:57;;;;;;;44.90;19.10;;;;;;;;;;4992358;28;20196;-74
2021/01/09 06:03:12;;;;;;;48.47;20.57;;;;;;;;;;4992021;28;20291;-74
2021/01/09 06:06:31;;;;;;;50.90;20.97;;;;;;;;;;4992500;28;20268;-74
2021/01/09 06:09:46;;;;;;;45.47;19.57;;;;;;;;;;4992158;28;20209;-74
2021/01/09 06:13:00;;;;;;;47.33;20.10;;;;;;;;;;4996184;28;20676;-74
2021/01/09 06:16:12;;;;;;;49.90;20.23;;;;;;;;;;4995769;28;20197;-74
2021/01/09 06:19:23;;;;;;;46.37;19.87;;;;;;;;;;4996059;28;20209;-75
2021/01/09 06:22:34;;;;;;;47.87;20.47;;;;;;;;;;4995618;28;20232;-75
2021/01/09 06:25:48;;;;;;;48.30;20.03;;;;;;;;;;4995788;28;20252;-74
2021/01/09 06:29:00;;;;;;;45.50;20.00;;;;;;;;;;4995597;28;20209;-74
2021/01/09 06:32:12;;;;;;;47.93;20.77;;;;;;;;;;4995865;28;20257;-74
2021/01/09 06:35:23;;;;;;;44.80;19.63;;;;;;;;;;4994952;28;20212;-74
2021/01/09 06:38:34;;;;;;;48.93;20.63;;;;;;;;;;4998436;28;20703;-74
2021/01/09 06:41:47;;;;;;;50.03;21.43;;;;;;;;;;5001144;28;20295;-74
2021/01/09 06:45:01;;;;;;;48.93;21.07;;;;;;;;;;5001366;28;20598;-75
2021/01/09 06:48:12;;;;;;;50.93;20.27;;;;;;;;;;4999925;28;20196;-74
2021/01/09 06:51:38;;;;;;;47.97;21.03;;;;;;;;;;4999926;28;20272;-74
2021/01/09 06:54:49;;;;;;;49.23;20.27;;;;;;;;;;5000786;28;20193;-75
2021/01/09 06:58:01;;;;;;;50.47;20.47;;;;;;;;;;5001424;28;20344;-76
2021/01/09 07:01:23;;;;;;;44.83;19.53;;;;;;;;;;5002477;28;20221;-76
2021/01/09 07:04:53;;;;;;;47.93;19.40;;;;;;;;;;5001953;28;20284;-76
2021/01/09 07:08:05;;;;;;;44.63;20.30;;;;;;;;;;4998102;28;20212;-75
2021/01/09 07:11:17;;;;;;;45.23;19.80;;;;;;;;;;4995181;28;20275;-76
2021/01/09 07:14:34;;;;;;;48.63;21.17;;;;;;;;;;4996783;28;20208;-75
2021/01/09 07:17:51;;;;;;;48.03;20.20;;;;;;;;;;4995478;28;20597;-74
2021/01/09 07:21:03;;;;;;;53.47;21.53;;;;;;;;;;4996175;28;20233;-75
2021/01/09 07:24:17;;;;;;;47.87;20.43;;;;;;;;;;4994409;28;20194;-75
2021/01/09 07:27:33;;;;;;;51.03;21.27;;;;;;;;;;5001937;28;20286;-74
2021/01/09 07:30:45;;;;;;;56.80;23.53;;;;;;;;;;5001421;28;20592;-75
2021/01/09 07:33:57;;;;;;;55.80;21.97;;;;;;;;;;5001415;28;20213;-75
2021/01/09 07:37:09;;;;;;;46.90;21.60;;;;;;;;;;5001636;28;20213;-76
2021/01/09 07:40:21;;;;;;;59.90;23.57;;;;;;;;;;5001384;28;20268;-74
2021/01/09 07:43:36;;;;;;;52.03;22.50;;;;;;;;;;5000664;28;20265;-75
2021/01/09 07:46:52;;;;;;;45.93;20.27;;;;;;;;;;5001463;28;20204;-75
2021/01/09 07:50:03;;;;;;;48.90;20.53;;;;;;;;;;4999512;28;20233;-75
2021/01/09 07:53:26;;;;;;;54.97;21.50;;;;;;;;;;4995098;28;20907;-75
2021/01/09 07:56:37;;;;;;;49.60;20.83;;;;;;;;;;4993197;28;20265;-75
2021/01/09 08:00:01;;;;;;;50.93;21.83;;;;;;;;;;4993160;28;20285;-75
2021/01/09 08:03:14;;;;;;;48.13;20.50;;;;;;;;;;4993199;28;20269;-75
2021/01/09 08:06:25;;;;;;;49.43;20.63;;;;;;;;;;4992962;28;20284;-75
2021/01/09 08:09:36;;;;;;;45.73;19.70;;;;;;;;;;4993158;28;20209;-75
2021/01/09 08:12:48;;;;;;;47.30;21.20;;;;;;;;;;4995717;28;20271;-75
2021/01/09 08:15:59;;;;;;;47.83;20.87;;;;;;;;;;4993092;28;20744;-75
2021/01/09 08:19:17;;;;;;;49.63;22.00;;;;;;;;;;4992713;28;20205;-75
2021/01/09 08:22:30;;;;;;;49.83;22.20;;;;;;;;;;4992777;28;20659;-75
2021/01/09 08:25:43;;;;;;;53.00;22.23;;;;;;;;;;4992751;28;20730;-75
2021/01/09 08:28:57;;;;;;;52.20;21.87;;;;;;;;;;4992741;28;20216;-75
2021/01/09 08:32:13;;;;;;;53.57;21.63;;;;;;;;;;4992734;28;20240;-75
2021/01/09 08:35:25;;;;;;;52.80;22.57;;;;;;;;;;4992888;28;20296;-75
2021/01/09 08:38:36;;;;;;;50.27;22.57;;;;;;;;;;4993352;28;20221;-75
2021/01/09 08:41:47;;;;;;;50.00;22.30;;;;;;;;;;4992575;28;20252;-75
2021/01/09 08:44:59;;;;;;;51.63;23.40;;;;;;;;;;4992325;28;20221;-75
2021/01/09 08:48:11;;;;;;;48.47;20.60;;;;;;;;;;4992550;28;20264;-74
2021/01/09 08:51:23;;;;;;;49.60;22.50;;;;;;;;;;4992408;28;20240;-74
2021/01/09 08:54:35;;;;;;;47.60;21.50;;;;;;;;;;4992134;28;20696;-75
2021/01/09 08:57:46;;;;;;;49.37;21.87;;;;;;;;;;4992305;28;20700;-74
2021/01/09 09:00:58;;;;;;;52.00;22.80;;;;;;;;;;4992145;28;20337;-74
2021/01/09 09:04:10;;;;;;;50.07;22.43;;;;;;;;;;4992469;28;20208;-75
2021/01/09 09:07:22;;;;;;;55.23;23.43;;;;;;;;;;4992557;28;20204;-75
2021/01/09 09:10:33;;;;;;;52.43;21.60;;;;;;;;;;4992451;28;20643;-75
2021/01/09 09:14:03;;;;;;;52.23;22.60;;;;;;;;;;4993984;28;20579;-75
2021/01/09 09:17:21;;;;;;;59.67;23.77;;;;;;;;;;5001063;28;20236;-75
2021/01/09 09:20:35;;;;;;;53.77;21.17;;;;;;;;;;5001264;28;20700;-75
2021/01/09 09:23:52;;;;;;;50.23;21.57;;;;;;;;;;4996938;28;20217;-75
2021/01/09 09:27:19;;;;;;;45.70;20.33;;;;;;;;;;4998305;28;20340;-75
2021/01/09 09:30:30;;;;;;;51.27;22.70;;;;;;;;;;4992808;28;20225;-75
2021/01/09 09:33:42;;;;;;;53.17;22.27;;;;;;;;;;4991828;28;20205;-75
2021/01/09 09:37:00;;;;;;;49.20;20.63;;;;;;;;;;4991867;28;20220;-75
2021/01/09 09:40:22;;;;;;;52.43;21.93;;;;;;;;;;4991798;28;20224;-75
2021/01/09 09:43:33;;;;;;;46.00;20.17;;;;;;;;;;4992138;28;20285;-76
2021/01/09 09:46:44;;;;;;;48.07;21.73;;;;;;;;;;4995374;28;20232;-76
2021/01/09 09:50:00;;;;;;;47.80;21.27;;;;;;;;;;4996055;28;20264;-76
2021/01/09 09:53:11;;;;;;;47.20;21.07;;;;;;;;;;5005012;28;20209;-75
2021/01/09 09:56:25;;;;;;;47.70;20.83;;;;;;;;;;5017733;28;20209;-75
2021/01/09 09:59:36;;;;;;;45.93;19.83;;;;;;;;;;5018462;28;20241;-75
2021/01/09 10:02:53;;;;;;;48.00;21.07;;;;;;;;;;5008128;28;20256;-75
2021/01/09 10:06:04;;;;;;;44.83;20.57;;;;;;;;;;4995546;28;20288;-75
2021/01/09 10:09:17;;;;;;;44.63;20.03;;;;;;;;;;4996081;28;20256;-75
2021/01/09 10:12:29;;;;;;;49.57;21.50;;;;;;;;;;4995152;28;20232;-75
2021/01/09 10:15:40;;;;;;;55.50;24.20;;;;;;;;;;4995070;28;20213;-76
2021/01/09 10:18:51;;;;;;;50.20;22.30;;;;;;;;;;4995091;28;20738;-75
2021/01/09 10:22:03;;;;;;;42.33;20.00;;;;;;;;;;4995315;28;20279;-75
2021/01/09 10:25:14;;;;;;;46.33;20.33;;;;;;;;;;4995018;28;20267;-75
2021/01/09 10:28:26;;;;;;;47.70;20.10;;;;;;;;;;4995756;28;20373;-75
2021/01/09 10:31:38;;;;;;;45.13;20.93;;;;;;;;;;4994519;28;20287;-76
2021/01/09 10:34:49;;;;;;;48.00;21.80;;;;;;;;;;4994748;28;20231;-75
2021/01/09 10:38:00;;;;;;;49.03;21.20;;;;;;;;;;4994621;28;20589;-75
2021/01/09 10:41:13;;;;;;;46.53;21.07;;;;;;;;;;4995028;28;20380;-75
2021/01/09 10:44:25;;;;;;;45.20;20.63;;;;;;;;;;4994600;28;20213;-75
2021/01/09 10:47:36;;;;;;;49.43;20.70;;;;;;;;;;4994229;28;20272;-75
2021/01/09 10:50:47;;;;;;;49.27;21.87;;;;;;;;;;4994565;28;20305;-75
2021/01/09 10:54:01;;;;;;;55.57;23.27;;;;;;;;;;4994541;28;20209;-75
2021/01/09 10:57:12;;;;;;;50.93;21.97;;;;;;;;;;4994823;28;20345;-75
2021/01/09 11:00:25;;;;;;;46.80;21.37;;;;;;;;;;4994387;28;20256;-75
2021/01/09 11:03:37;;;;;;;49.63;22.73;;;;;;;;;;4994852;28;20228;-75
2021/01/09 11:06:48;;;;;;;51.00;22.37;;;;;;;;;;4994056;28;20233;-75
2021/01/09 11:09:59;;;;;;;44.83;20.87;;;;;;;;;;4994310;28;20188;-76
2021/01/09 11:13:10;;;;;;;48.43;21.80;;;;;;;;;;4996135;28;20205;-75
2021/01/09 11:16:25;;;;;;;55.00;21.60;;;;;;;;;;4995773;28;20209;-76
2021/01/09 11:19:36;;;;;;;56.23;23.73;;;;;;;;;;4994413;28;20267;-76
2021/01/09 11:22:47;;;;;;;51.03;21.33;;;;;;;;;;4994360;28;20602;-76
2021/01/09 11:25:58;;;;;;;48.30;20.93;;;;;;;;;;4994835;28;20236;-76
2021/01/09 11:29:11;;;;;;;46.13;20.27;;;;;;;;;;4994594;28;20213;-76
2021/01/09 11:32:23;;;;;;;51.47;22.27;;;;;;;;;;4993982;28;20320;-76
2021/01/09 11:35:34;;;;;;;55.33;22.50;;;;;;;;;;4994210;28;20229;-75
2021/01/09 11:38:45;;;;;;;54.97;23.30;;;;;;;;;;4994796;28;20237;-76
2021/01/09 11:41:58;;;;;;;46.67;21.70;;;;;;;;;;4993901;28;20813;-75
2021/01/09 11:45:09;;;;;;;49.93;21.93;;;;;;;;;;4993616;28;20305;-76
2021/01/09 11:48:22;;;;;;;49.70;21.53;;;;;;;;;;4993733;28;20296;-75
2021/01/09 11:51:34;;;;;;;49.33;21.87;;;;;;;;;;4993917;28;20260;-76
2021/01/09 11:54:45;;;;;;;54.77;23.33;;;;;;;;;;4995024;28;20213;-75
2021/01/09 11:57:56;;;;;;;169.70;54.53;;;;;;;;;;4993424;28;20259;-76
2021/01/09 12:01:07;;;;;;;61.40;26.47;;;;;;;;;;4993425;28;20357;-76
2021/01/09 12:04:19;;;;;;;53.73;23.83;;;;;;;;;;4993307;28;20220;-75
2021/01/09 12:07:30;;;;;;;52.47;22.50;;;;;;;;;;4993976;28;20213;-76
2021/01/09 12:10:42;;;;;;;53.70;23.50;;;;;;;;;;4993945;28;20684;-76
2021/01/09 12:13:57;;;;;;;51.87;22.43;;;;;;;;;;4993970;28;20212;-76
2021/01/09 12:17:09;;;;;;;59.53;25.80;;;;;;;;;;4994613;28;20205;-75
2021/01/09 12:20:21;;;;;;;55.73;23.80;;;;;;;;;;4994360;28;20252;-76
2021/01/09 12:23:32;;;;;;;53.37;22.30;;;;;;;;;;4993838;28;20291;-76
2021/01/09 12:26:43;;;;;;;55.87;23.30;;;;;;;;;;4993145;28;20617;-75
2021/01/09 12:29:54;;;;;;;53.70;22.97;;;;;;;;;;4993143;28;20688;-76
2021/01/09 12:33:07;;;;;;;53.40;23.00;;;;;;;;;;4993172;28;20209;-75
2021/01/09 12:36:19;;;;;;;54.30;23.23;;;;;;;;;;4993625;28;20633;-75
2021/01/09 12:39:30;;;;;;;56.80;24.20;;;;;;;;;;4993213;28;20241;-76
2021/01/09 12:42:41;;;;;;;52.10;23.67;;;;;;;;;;4993349;28;20225;-75
2021/01/09 12:45:54;;;;;;;61.10;25.53;;;;;;;;;;4992871;28;20597;-75
2021/01/09 12:49:05;;;;;;;66.60;26.83;;;;;;;;;;4999436;28;20212;-74
2021/01/09 12:52:18;;;;;;;64.30;24.67;;;;;;;;;;5002965;28;20232;-76
2021/01/09 12:55:29;;;;;;;66.90;26.17;;;;;;;;;;5004018;28;20198;-76
2021/01/09 12:58:40;;;;;;;57.47;24.20;;;;;;;;;;4997845;28;20212;-75
2021/01/09 13:01:54;;;;;;;64.50;26.93;;;;;;;;;;5012627;28;20244;-76
2021/01/09 13:05:05;;;;;;;65.77;26.53;;;;;;;;;;5013548;28;20213;-76
2021/01/09 13:08:18;;;;;;;59.53;24.43;;;;;;;;;;5009423;28;20197;-75
2021/01/09 13:11:29;;;;;;;62.03;24.53;;;;;;;;;;4992981;28;20228;-75
2021/01/09 13:14:40;;;;;;;61.43;26.17;;;;;;;;;;4992253;28;20748;-75
2021/01/09 13:17:53;;;;;;;58.70;24.20;;;;;;;;;;4993378;28;20244;-75
2021/01/09 13:21:04;;;;;;;59.40;25.43;;;;;;;;;;4991986;28;20224;-76
2021/01/09 13:24:17;;;;;;;58.63;25.33;;;;;;;;;;4991935;28;20212;-76
2021/01/09 13:27:28;;;;;;;59.97;26.27;;;;;;;;;;4992952;28;20205;-76
2021/01/09 13:30:39;;;;;;;57.27;25.30;;;;;;;;;;4991470;28;20204;-76
2021/01/09 13:33:50;;;;;;;62.17;25.93;;;;;;;;;;4992544;28;20744;-76
2021/01/09 13:37:04;;;;;;;57.93;23.80;;;;;;;;;;4992139;28;20661;-76
2021/01/09 13:40:16;;;;;;;62.23;23.20;;;;;;;;;;4991747;28;20209;-76
2021/01/09 13:43:27;;;;;;;51.37;21.47;;;;;;;;;;4991838;28;20686;-76
2021/01/09 13:46:41;;;;;;;49.67;21.03;;;;;;;;;;4991989;28;20331;-76
2021/01/09 13:49:52;;;;;;;51.10;21.20;;;;;;;;;;4992180;28;20742;-76
2021/01/09 13:53:06;;;;;;;53.70;21.37;;;;;;;;;;4991751;28;20686;-75
2021/01/09 13:56:18;;;;;;;51.63;20.47;;;;;;;;;;4992532;28;20193;-75
2021/01/09 13:59:30;;;;;;;52.47;21.00;;;;;;;;;;4992108;28;20210;-75
2021/01/09 14:02:41;;;;;;;45.60;19.60;;;;;;;;;;4991477;28;20225;-76
2021/01/09 14:05:52;;;;;;;47.80;19.23;;;;;;;;;;4992429;28;20260;-76
2021/01/09 14:09:04;;;;;;;46.23;19.13;;;;;;;;;;5002451;28;20185;-74
2021/01/09 14:12:17;;;;;;;46.10;18.90;;;;;;;;;;5015748;28;20213;-75
2021/01/09 14:15:30;;;;;;;47.33;19.30;;;;;;;;;;5016270;28;20213;-74
2021/01/09 14:18:44;;;;;;;45.37;19.43;;;;;;;;;;4993183;28;20197;-74
2021/01/09 14:21:55;;;;;;;52.30;21.23;;;;;;;;;;4992444;28;20240;-74
2021/01/09 14:25:06;;;;;;;46.17;19.97;;;;;;;;;;4991410;28;20576;-76
2021/01/09 14:28:18;;;;;;;45.27;19.60;;;;;;;;;;4991088;28;20194;-73
2021/01/09 14:31:29;;;;;;;48.17;19.30;;;;;;;;;;4991866;28;20337;-74
2021/01/09 14:34:40;;;;;;;46.53;19.43;;;;;;;;;;4994872;28;20736;-75
2021/01/09 14:37:51;;;;;;;46.60;19.33;;;;;;;;;;4997626;28;20605;-75
2021/01/09 14:41:04;;;;;;;45.13;18.97;;;;;;;;;;4996551;28;20239;-75
2021/01/09 14:44:16;;;;;;;40.90;18.10;;;;;;;;;;4995919;28;20259;-75
2021/01/09 14:47:31;;;;;;;38.37;17.30;;;;;;;;;;5006969;28;20755;-75
2021/01/09 14:50:42;;;;;;;42.30;18.27;;;;;;;;;;4996275;28;20204;-75
2021/01/09 14:53:53;;;;;;;41.40;16.70;;;;;;;;;;4998318;28;20347;-74
2021/01/09 14:57:06;;;;;;;39.73;17.93;;;;;;;;;;5006208;28;20216;-76
2021/01/09 15:00:19;;;;;;;39.97;17.47;;;;;;;;;;5005176;28;20689;-75
2021/01/09 15:03:30;;;;;;;40.97;16.90;;;;;;;;;;5006846;28;20216;-75
2021/01/09 15:06:41;;;;;;;37.37;14.63;;;;;;;;;;5004207;28;20236;-75
2021/01/09 15:09:53;;;;;;;32.90;15.00;;;;;;;;;;4995738;28;20264;-75
2021/01/09 15:13:04;;;;;;;35.43;15.87;;;;;;;;;;4994255;28;20297;-74
2021/01/09 15:16:17;;;;;;;34.23;14.20;;;;;;;;;;4994026;28;20209;-75
2021/01/09 15:19:28;;;;;;;41.83;18.30;;;;;;;;;;4993863;28;20245;-76
2021/01/09 15:22:39;;;;;;;40.57;15.67;;;;;;;;;;4993952;28;20269;-74
2021/01/09 15:25:51;;;;;;;43.53;16.20;;;;;;;;;;4994480;28;20746;-75
2021/01/09 15:29:02;;;;;;;39.67;16.30;;;;;;;;;;4994075;28;20590;-75
2021/01/09 15:32:14;;;;;;;34.87;15.60;;;;;;;;;;4994204;28;20237;-75
2021/01/09 15:35:25;;;;;;;63.70;23.77;;;;;;;;;;4994959;28;20209;-75
2021/01/09 15:38:36;;;;;;;79.00;30.77;;;;;;;;;;4993694;28;20228;-75
2021/01/09 15:41:51;;;;;;;47.03;20.33;;;;;;;;;;4993633;28;20225;-76
2021/01/09 15:45:04;;;;;;;39.53;16.40;;;;;;;;;;4992995;28;20209;-74
2021/01/09 15:48:16;;;;;;;50.63;18.00;;;;;;;;;;4993404;28;20209;-75
2021/01/09 15:51:27;;;;;;;38.87;16.60;;;;;;;;;;4993415;28;20228;-74
2021/01/09 15:54:38;;;;;;;37.00;14.93;;;;;;;;;;4993403;28;20209;-74
2021/01/09 15:57:49;;;;;;;35.87;16.33;;;;;;;;;;4993372;28;20220;-74
2021/01/09 16:01:00;;;;;;;33.53;14.23;;;;;;;;;;4993967;28;20312;-74
2021/01/09 16:04:12;;;;;;;33.77;14.50;;;;;;;;;;4993468;28;20216;-74
2021/01/09 16:07:23;;;;;;;39.03;15.67;;;;;;;;;;4992979;28;20229;-74
2021/01/09 16:10:37;;;;;;;39.53;15.77;;;;;;;;;;4993005;28;20264;-74
2021/01/09 16:13:49;;;;;;;43.10;17.27;;;;;;;;;;4994795;28;20209;-76
2021/01/09 16:17:01;;;;;;;39.47;16.10;;;;;;;;;;4993314;28;20627;-75
2021/01/09 16:20:13;;;;;;;40.87;16.37;;;;;;;;;;4993604;28;20271;-76
2021/01/09 16:23:26;;;;;;;41.13;16.03;;;;;;;;;;4994309;28;20691;-75
2021/01/09 16:26:37;;;;;;;41.87;16.80;;;;;;;;;;4993325;28;20356;-74
2021/01/09 16:29:48;;;;;;;43.23;17.97;;;;;;;;;;4993422;28;20236;-74
2021/01/09 16:33:00;;;;;;;45.33;17.53;;;;;;;;;;4994433;28;20355;-75
2021/01/09 16:36:13;;;;;;;43.13;17.67;;;;;;;;;;4994135;28;20290;-75
2021/01/09 16:39:26;;;;;;;48.10;18.30;;;;;;;;;;4996099;28;20616;-75
2021/01/09 16:42:39;;;;;;;51.90;20.13;;;;;;;;;;4994146;28;20228;-75
2021/01/09 16:45:50;;;;;;;47.13;19.67;;;;;;;;;;5005405;28;20212;-74
2021/01/09 16:49:01;;;;;;;49.07;20.03;;;;;;;;;;5007686;28;20269;-74
2021/01/09 16:52:14;;;;;;;48.10;18.53;;;;;;;;;;5005007;28;20605;-75
2021/01/09 16:55:25;;;;;;;49.03;19.37;;;;;;;;;;4992375;28;20693;-75
2021/01/09 16:58:36;;;;;;;49.47;20.70;;;;;;;;;;4994124;28;20233;-76
2021/01/09 17:01:47;;;;;;;50.13;19.40;;;;;;;;;;4991947;28;20740;-75
2021/01/09 17:04:58;;;;;;;46.73;18.93;;;;;;;;;;4992096;28;20255;-75
2021/01/09 17:08:10;;;;;;;45.03;18.60;;;;;;;;;;4992786;28;20293;-76
2021/01/09 17:11:23;;;;;;;45.57;18.47;;;;;;;;;;4994064;28;20277;-75
2021/01/09 17:14:34;;;;;;;52.27;19.57;;;;;;;;;;4992044;28;20193;-75
2021/01/09 17:17:45;;;;;;;48.20;19.90;;;;;;;;;;4991827;28;20689;-75
2021/01/09 17:21:00;;;;;;;53.60;22.40;;;;;;;;;;4992647;28;20777;-74
2021/01/09 17:24:15;;;;;;;50.67;21.63;;;;;;;;;;4992034;28;20209;-75
2021/01/09 17:27:26;;;;;;;50.80;20.73;;;;;;;;;;4991466;28;20229;-75
2021/01/09 17:30:37;;;;;;;49.90;19.37;;;;;;;;;;4991411;28;20221;-74
2021/01/09 17:33:49;;;;;;;53.43;20.70;;;;;;;;;;4991355;28;20769;-75
2021/01/09 17:37:01;;;;;;;57.27;21.33;;;;;;;;;;4992898;28;20236;-74
2021/01/09 17:40:13;;;;;;;55.80;21.50;;;;;;;;;;4991618;28;20259;-74
2021/01/09 17:43:24;;;;;;;58.30;23.37;;;;;;;;;;4991412;28;20581;-75
2021/01/09 17:46:35;;;;;;;56.67;22.63;;;;;;;;;;4991389;28;20311;-75
2021/01/09 17:49:46;;;;;;;59.50;23.67;;;;;;;;;;4991575;28;20193;-74
2021/01/09 17:52:57;;;;;;;60.23;24.70;;;;;;;;;;4991641;28;20304;-74
2021/01/09 17:56:10;;;;;;;109.93;37.40;;;;;;;;;;4991627;28;20201;-74
2021/01/09 17:59:21;;;;;;;61.73;24.53;;;;;;;;;;4991768;28;20271;-75
2021/01/09 18:02:32;;;;;;;68.20;26.50;;;;;;;;;;4991594;28;20304;-74
2021/01/09 18:05:43;;;;;;;66.73;27.20;;;;;;;;;;4991373;28;20248;-75
2021/01/09 18:08:55;;;;;;;84.33;34.67;;;;;;;;;;4995610;28;21007;-75
2021/01/09 18:12:07;;;;;;;68.23;26.37;;;;;;;;;;4995495;28;20224;-75
2021/01/09 18:15:25;;;;;;;62.37;22.73;;;;;;;;;;4995715;28;20685;-75
2021/01/09 18:18:39;;;;;;;61.77;22.23;;;;;;;;;;4998665;28;20592;-74
2021/01/09 18:21:52;;;;;;;56.20;22.33;;;;;;;;;;5001183;28;20324;-75
2021/01/09 18:25:20;;;;;;;55.40;22.00;;;;;;;;;;5010037;28;20200;-75
2021/01/09 18:28:36;;;;;;;52.77;20.70;;;;;;;;;;5017190;28;20189;-75
2021/01/09 18:31:52;;;;;;;55.53;20.03;;;;;;;;;;4998760;28;20248;-76
2021/01/09 18:35:05;;;;;;;52.90;19.57;;;;;;;;;;4997397;28;20244;-76
2021/01/09 18:38:16;;;;;;;51.63;19.93;;;;;;;;;;4996719;28;20280;-74